Time;durP1;ratioP1;P1;durP2;ratioP2;P2;SDS_P1;SDS_P2;PMS_P1;PMS_P2;Temp;Humidity;BMP_temperature;BMP_pressure;BME280_temperature;BME280_humidity;BME280_pressure;Samples;Min_cycle;Max_cycle;Signal;HPM_P1;HPM_P2
2023/12/18 00:00:39;;;;;;;70.82;31.75;;;;;;;-0.90;100.00;99381.31;5136242;27;20401;-80
2023/12/18 00:03:04;;;;;;;67.45;30.98;;;;;;;-0.87;100.00;99381.34;5119220;27;20038;-80
2023/12/18 00:05:30;;;;;;;61.10;27.83;;;;;;;-0.93;100.00;99376.00;5130296;27;20031;-80
2023/12/18 00:07:56;;;;;;;58.13;25.35;;;;;;;-0.93;100.00;99385.63;5123270;27;20035;-79
2023/12/18 00:10:22;;;;;;;52.10;22.92;;;;;;;-0.97;100.00;99381.19;5123694;27;20114;-80
2023/12/18 00:12:48;;;;;;;56.03;23.13;;;;;;;-0.86;100.00;99393.59;5118748;27;20054;-81
2023/12/18 00:15:13;;;;;;;51.35;23.08;;;;;;;-0.84;100.00;99380.50;5114419;27;20441;-80
2023/12/18 00:17:39;;;;;;;47.88;22.15;;;;;;;-0.81;100.00;99381.41;5132924;27;20019;-80
2023/12/18 00:20:05;;;;;;;63.47;26.25;;;;;;;-0.87;100.00;99389.22;5118543;27;20019;-80
2023/12/18 00:22:31;;;;;;;60.80;24.38;;;;;;;-0.88;100.00;99378.69;5118413;27;20027;-80
2023/12/18 00:24:56;;;;;;;36.30;16.33;;;;;;;-0.85;100.00;99373.47;5115258;27;20073;-79
2023/12/18 00:27:22;;;;;;;45.38;17.45;;;;;;;-0.92;100.00;99372.50;5119240;27;20026;-80
2023/12/18 00:29:47;;;;;;;38.83;15.68;;;;;;;-1.00;100.00;99374.16;5127282;27;20023;-81
2023/12/18 00:32:13;;;;;;;29.50;12.68;;;;;;;-0.99;100.00;99373.31;5116612;27;20546;-81
2023/12/18 00:34:42;;;;;;;23.83;12.73;;;;;;;-0.96;100.00;99369.84;5098114;27;20075;-81
2023/12/18 00:37:07;;;;;;;26.80;12.95;;;;;;;-1.04;100.00;99367.09;5117454;27;20640;-80
2023/12/18 00:39:33;;;;;;;26.83;12.02;;;;;;;-1.25;100.00;99367.69;5113797;27;20042;-81
2023/12/18 00:41:58;;;;;;;30.45;12.35;;;;;;;-1.31;100.00;99371.97;5147183;27;20036;-80
2023/12/18 00:44:24;;;;;;;30.33;13.13;;;;;;;-1.33;100.00;99364.09;5113798;27;20018;-80
2023/12/18 00:46:50;;;;;;;36.50;15.60;;;;;;;-1.35;100.00;99360.53;5136476;27;20106;-79
2023/12/18 00:49:15;;;;;;;41.60;18.48;;;;;;;-1.33;100.00;99358.84;5133615;27;20105;-80
2023/12/18 00:51:41;;;;;;;48.72;19.05;;;;;;;-1.33;100.00;99358.84;5130745;27;20416;-81
2023/12/18 00:54:07;;;;;;;41.67;18.77;;;;;;;-1.35;100.00;99352.66;5106180;27;20034;-79
2023/12/18 00:56:33;;;;;;;36.97;17.10;;;;;;;-1.36;100.00;99353.56;5108679;27;20055;-80
2023/12/18 00:58:59;;;;;;;42.20;20.67;;;;;;;-1.34;100.00;99353.56;5083226;27;20130;-81
2023/12/18 01:01:25;;;;;;;46.28;21.63;;;;;;;-1.40;100.00;99348.22;5114262;27;20398;-80
2023/12/18 01:03:50;;;;;;;44.17;20.27;;;;;;;-1.36;100.00;99347.41;5149621;27;20134;-80
2023/12/18 01:06:16;;;;;;;50.47;21.10;;;;;;;-1.39;100.00;99336.88;5142833;27;20054;-80
2023/12/18 01:08:41;;;;;;;50.60;20.45;;;;;;;-1.35;100.00;99343.91;5117725;27;20425;-80
2023/12/18 01:13:51;;;;;;;44.85;18.88;;;;;;;-1.34;100.00;99340.44;5147703;27;20435;-80
2023/12/18 01:16:17;;;;;;;41.70;18.30;;;;;;;-1.31;100.00;99325.63;5117150;27;20109;-79
2023/12/18 01:18:43;;;;;;;51.45;18.70;;;;;;;-1.35;100.00;99329.06;5117352;27;20086;-79
2023/12/18 01:21:08;;;;;;;38.45;18.10;;;;;;;-1.34;100.00;99324.69;5125192;27;20105;-78
2023/12/18 01:23:34;;;;;;;40.97;17.17;;;;;;;-1.43;100.00;99314.06;5127842;27;20037;-79
2023/12/18 01:25:59;;;;;;;44.75;20.20;;;;;;;-1.33;100.00;99315.97;5135139;27;20412;-80
2023/12/18 01:28:25;;;;;;;46.03;20.15;;;;;;;-1.30;100.00;99322.16;5132049;27;20034;-80
2023/12/18 01:30:51;;;;;;;50.55;21.55;;;;;;;-1.33;100.00;99313.34;5126147;27;20031;-80
2023/12/18 01:33:16;;;;;;;46.47;19.73;;;;;;;-1.35;100.00;99309.78;5134038;27;20039;-78
2023/12/18 01:35:42;;;;;;;44.38;20.58;;;;;;;-1.32;100.00;99308.09;5134091;27;20022;-80
2023/12/18 01:38:09;;;;;;;44.95;20.75;;;;;;;-1.28;100.00;99309.03;5133199;27;20031;-81
2023/12/18 01:40:35;;;;;;;49.00;21.20;;;;;;;-1.23;100.00;99307.38;5133857;27;20104;-79
2023/12/18 01:43:01;;;;;;;46.88;19.92;;;;;;;-1.22;100.00;99298.59;5152829;27;20035;-80
2023/12/18 01:45:26;;;;;;;43.47;19.67;;;;;;;-1.26;100.00;99302.94;5126786;27;20387;-79
2023/12/18 01:47:53;;;;;;;44.40;20.15;;;;;;;-1.23;100.00;99294.25;5134369;27;20034;-80
2023/12/18 01:50:19;;;;;;;42.55;18.67;;;;;;;-1.27;100.00;99289.81;5114369;27;20497;-79
2023/12/18 01:52:45;;;;;;;46.95;20.98;;;;;;;-1.28;100.00;99298.53;5112245;27;20038;-79
2023/12/18 01:55:11;;;;;;;46.25;21.42;;;;;;;-1.28;100.00;99306.41;5131354;27;20031;-80
2023/12/18 01:57:37;;;;;;;45.38;21.83;;;;;;;-1.27;100.00;99306.44;5126617;27;20018;-79
2023/12/18 02:00:03;;;;;;;47.60;20.45;;;;;;;-1.27;100.00;99305.56;5133896;27;20140;-80
2023/12/18 02:02:29;;;;;;;48.50;21.02;;;;;;;-1.38;100.00;99300.16;5150594;27;20026;-79
2023/12/18 02:04:55;;;;;;;45.55;21.20;;;;;;;-1.42;100.00;99297.47;5111741;27;20050;-80
2023/12/18 02:07:21;;;;;;;48.17;21.38;;;;;;;-1.47;100.00;99292.16;5152340;27;20409;-78
2023/12/18 02:09:46;;;;;;;47.22;21.42;;;;;;;-1.49;100.00;99285.13;5133681;27;20022;-79
2023/12/18 02:12:12;;;;;;;41.22;17.30;;;;;;;-1.51;100.00;99284.25;5109324;27;20026;-80
2023/12/18 02:14:37;;;;;;;36.30;15.80;;;;;;;-1.57;100.00;99286.78;5133629;27;20026;-78
2023/12/18 02:17:03;;;;;;;45.53;17.80;;;;;;;-1.55;100.00;99285.06;5133669;27;20027;-80
2023/12/18 02:19:29;;;;;;;49.47;19.92;;;;;;;-1.53;100.00;99292.06;5115997;27;20030;-79
2023/12/18 02:21:56;;;;;;;38.13;16.95;;;;;;;-1.53;100.00;99280.69;5116370;27;20031;-80
2023/12/18 02:24:22;;;;;;;39.78;18.02;;;;;;;-1.59;100.00;99280.59;5131861;27;20481;-78
2023/12/18 02:26:47;;;;;;;32.50;15.05;;;;;;;-1.56;100.00;99289.41;5123058;27;20019;-79
2023/12/18 02:29:13;;;;;;;47.55;21.10;;;;;;;-1.59;100.00;99271.00;5116033;27;20023;-80
2023/12/18 02:31:39;;;;;;;47.17;22.00;;;;;;;-1.53;100.00;99286.81;5131336;28;20027;-78
2023/12/18 02:34:05;;;;;;;53.22;22.08;;;;;;;-1.54;100.00;99282.47;5128784;27;20554;-79
2023/12/18 02:36:31;;;;;;;37.55;18.80;;;;;;;-1.55;100.00;99275.44;5130757;27;20035;-78
2023/12/18 02:38:56;;;;;;;39.72;17.48;;;;;;;-1.53;100.00;99291.19;5130404;27;20031;-79
2023/12/18 02:41:22;;;;;;;38.75;17.23;;;;;;;-1.50;100.00;99296.47;5156125;27;20062;-79
2023/12/18 02:43:47;;;;;;;35.60;16.42;;;;;;;-1.58;100.00;99287.63;5117029;27;20067;-78
2023/12/18 02:46:13;;;;;;;39.38;15.88;;;;;;;-1.58;100.00;99293.75;5117693;27;20030;-79
2023/12/18 02:48:39;;;;;;;33.22;13.60;;;;;;;-1.66;100.00;99296.25;5120676;27;20114;-78
2023/12/18 02:51:05;;;;;;;33.92;15.60;;;;;;;-1.61;100.00;99293.72;5120085;27;20110;-78
2023/12/18 02:53:31;;;;;;;37.50;14.93;;;;;;;-1.67;100.00;99276.16;5137295;27;20027;-79
2023/12/18 02:55:56;;;;;;;31.63;14.15;;;;;;;-1.69;100.00;99280.47;5135817;27;20462;-78
2023/12/18 02:58:22;;;;;;;31.55;14.15;;;;;;;-1.77;100.00;99286.47;5127883;27;20027;-79
2023/12/18 03:00:51;;;;;;;32.88;14.82;;;;;;;-1.75;100.00;99284.75;5116450;27;20023;-80
2023/12/18 03:03:16;;;;;;;37.30;18.17;;;;;;;-1.70;100.00;99283.09;5136847;27;20019;-80
2023/12/18 03:05:42;;;;;;;43.00;19.13;;;;;;;-1.70;100.00;99278.75;5116465;27;20099;-79
2023/12/18 03:08:08;;;;;;;42.40;17.92;;;;;;;-1.67;100.00;99273.53;5120090;27;20034;-79
2023/12/18 03:10:34;;;;;;;33.65;15.45;;;;;;;-1.69;100.00;99275.25;5137421;27;20543;-80
2023/12/18 03:12:59;;;;;;;30.67;12.43;;;;;;;-1.73;100.00;99265.59;5132387;27;20037;-78
2023/12/18 03:15:26;;;;;;;30.10;13.65;;;;;;;-1.82;100.00;99268.06;5155396;27;20504;-80
2023/12/18 03:17:51;;;;;;;31.55;13.55;;;;;;;-1.83;100.00;99266.31;5128431;27;20050;-79
2023/12/18 03:20:17;;;;;;;27.13;13.38;;;;;;;-1.88;100.00;99249.63;5132404;27;20379;-79
2023/12/18 03:22:43;;;;;;;29.33;13.38;;;;;;;-1.90;100.00;99248.72;5129535;27;20050;-79
2023/12/18 03:25:08;;;;;;;32.33;15.55;;;;;;;-1.88;100.00;99262.75;5134360;27;20027;-81
2023/12/18 03:27:34;;;;;;;33.20;15.35;;;;;;;-1.91;100.00;99239.09;5133455;27;20118;-80
2023/12/18 03:29:59;;;;;;;38.75;17.13;;;;;;;-1.93;100.00;99240.81;5135159;27;20029;-80
2023/12/18 03:32:25;;;;;;;29.65;15.00;;;;;;;-1.96;100.00;99243.38;5129914;27;20019;-79
2023/12/18 03:34:51;;;;;;;36.55;15.23;;;;;;;-1.95;100.00;99239.91;5136877;27;20562;-80
2023/12/18 03:37:16;;;;;;;36.78;14.77;;;;;;;-1.98;100.00;99239.88;5119343;27;20031;-79
2023/12/18 03:39:42;;;;;;;34.90;14.73;;;;;;;-1.99;100.00;99240.72;5119763;27;20556;-79
2023/12/18 03:42:07;;;;;;;31.58;14.35;;;;;;;-1.98;100.00;99239.88;5119195;27;20026;-80
2023/12/18 03:44:33;;;;;;;32.00;14.70;;;;;;;-1.91;100.00;99240.84;5136510;27;20490;-80
2023/12/18 03:47:02;;;;;;;30.50;14.25;;;;;;;-1.97;100.00;99243.38;5156988;27;20114;-79
2023/12/18 03:49:35;;;;;;;30.27;16.23;;;;;;;-1.89;100.00;99258.34;5078304;28;20527;-81
2023/12/18 03:52:04;;;;;;;41.70;16.25;;;;;;;-1.89;100.00;99239.09;5057951;28;20028;-79
2023/12/18 03:54:29;;;;;;;45.17;17.85;;;;;;;-1.94;100.00;99232.94;5057551;28;20168;-80
2023/12/18 03:56:55;;;;;;;41.15;18.45;;;;;;;-1.90;100.00;99240.84;5055222;28;20058;-79
2023/12/18 03:59:21;;;;;;;43.80;17.98;;;;;;;-1.90;100.00;99230.34;5070247;28;21711;-78
2023/12/18 04:01:46;;;;;;;54.70;21.30;;;;;;;-1.91;100.00;99228.63;5074013;28;20515;-79
2023/12/18 04:04:22;;;;;;;53.72;22.08;;;;;;;-1.88;100.00;99226.03;5091334;28;20059;-79
2023/12/18 04:06:47;;;;;;;56.53;24.05;;;;;;;-1.89;100.00;99221.63;5075827;28;20120;-81
2023/12/18 04:09:13;;;;;;;43.20;17.95;;;;;;;-1.92;100.00;99221.59;5091535;28;20135;-79
2023/12/18 04:11:39;;;;;;;36.70;15.63;;;;;;;-1.88;100.00;99223.41;5073825;28;20039;-80
2023/12/18 04:14:04;;;;;;;35.17;16.65;;;;;;;-1.91;100.00;99226.00;5056855;28;20039;-79
2023/12/18 04:16:33;;;;;;;38.58;16.90;;;;;;;-1.94;100.00;99223.34;5056456;28;20028;-80
2023/12/18 04:19:09;;;;;;;37.97;16.65;;;;;;;-1.90;100.00;99226.84;5073936;28;20036;-80
2023/12/18 04:21:38;;;;;;;34.38;16.35;;;;;;;-1.88;100.00;99231.28;5118380;27;20063;-80
2023/12/18 04:24:09;;;;;;;42.30;18.65;;;;;;;-1.89;100.00;99224.25;5115048;27;20103;-81
2023/12/18 04:26:34;;;;;;;37.40;16.10;;;;;;;-1.89;100.00;99223.38;5134722;27;20063;-79
2023/12/18 04:29:00;;;;;;;49.80;21.60;;;;;;;-1.83;100.00;99221.72;5113779;27;20073;-79
2023/12/18 04:31:29;;;;;;;55.40;22.20;;;;;;;-1.74;100.00;99229.72;5115060;27;20043;-80
2023/12/18 04:33:55;;;;;;;65.35;26.52;;;;;;;-1.78;100.00;99225.28;5109462;27;20019;-79
2023/12/18 04:36:23;;;;;;;54.90;21.65;;;;;;;-1.82;100.00;99226.13;5142789;27;20018;-82
2023/12/18 04:39:10;;;;;;;87.85;38.03;;;;;;;-1.72;100.00;99233.22;5134583;27;20041;-79
2023/12/18 04:44:32;;;;;;;74.53;29.10;;;;;;;-2.06;100.00;99189.03;5138195;27;20030;-79
2023/12/18 04:47:03;;;;;;;;;;;;;;;-1.67;100.00;99239.44;5114591;27;20050;-78
2023/12/18 04:49:33;;;;;;;73.03;29.40;;;;;;;-1.92;100.00;99221.59;5130354;27;19911;-81
2023/12/18 04:52:07;;;;;;;69.07;29.20;;;;;;;-1.80;100.00;99229.63;5131605;27;20030;-79
2023/12/18 04:54:46;;;;;;;56.92;25.80;;;;;;;-1.82;100.00;99231.38;5129988;27;20422;-79
2023/12/18 04:57:12;;;;;;;68.00;27.05;;;;;;;-1.93;100.00;99217.22;5117296;27;20031;-79
2023/12/18 04:59:40;;;;;;;67.18;27.83;;;;;;;-1.79;100.00;99230.53;5134574;27;20027;-79
2023/12/18 05:02:11;;;;;;;86.07;34.50;;;;;;;-1.87;100.00;99222.53;5131042;27;20451;-79
2023/12/18 05:04:37;;;;;;;52.28;21.80;;;;;;;-1.84;100.00;99224.31;5118726;27;20114;-79
2023/12/18 05:07:03;;;;;;;59.13;24.55;;;;;;;-1.94;100.00;99215.47;5153446;27;20134;-79
2023/12/18 05:09:44;;;;;;;69.30;27.23;;;;;;;-1.86;100.00;99228.66;5135248;27;20154;-79
2023/12/18 05:12:09;;;;;;;72.90;30.42;;;;;;;-1.89;100.00;99228.63;5135440;27;20050;-80
2023/12/18 05:14:35;;;;;;;69.40;29.30;;;;;;;-1.90;100.00;99232.09;5117625;27;20026;-79
2023/12/18 05:17:01;;;;;;;69.85;26.00;;;;;;;-1.89;100.00;99239.09;5113305;27;20098;-80
2023/12/18 05:19:35;;;;;;;58.50;26.17;;;;;;;-1.99;100.00;99229.34;5133232;27;20038;-79
2023/12/18 05:22:01;;;;;;;66.20;28.30;;;;;;;-1.97;100.00;99238.97;5116597;27;20458;-75
2023/12/18 05:24:27;;;;;;;55.30;23.25;;;;;;;-2.03;100.00;99235.41;5132163;27;20038;-77
2023/12/18 05:26:58;;;;;;;53.80;22.38;;;;;;;-2.04;100.00;99245.03;5132733;27;20099;-79
2023/12/18 05:29:24;;;;;;;49.92;20.88;;;;;;;-2.06;100.00;99251.97;5120559;27;20086;-78
2023/12/18 05:31:50;;;;;;;68.70;23.75;;;;;;;-2.13;100.00;99244.88;5126598;27;20043;-76
2023/12/18 05:34:15;;;;;;;64.43;22.15;;;;;;;-2.26;100.00;99230.72;5111541;27;20023;-81
2023/12/18 05:36:41;;;;;;;72.80;28.88;;;;;;;-2.16;100.00;99250.06;5129865;27;20430;-78
2023/12/18 05:39:09;;;;;;;86.15;30.40;;;;;;;-2.14;100.00;99245.72;5127058;27;20042;-79
2023/12/18 05:41:43;;;;;;;67.40;24.55;;;;;;;-2.18;100.00;99237.81;5148651;27;20054;-80
2023/12/18 05:44:09;;;;;;;58.35;21.80;;;;;;;-2.16;100.00;99255.31;5116715;27;20036;-79
2023/12/18 05:46:38;;;;;;;72.60;26.60;;;;;;;-2.29;100.00;99254.25;5130114;27;20474;-80
2023/12/18 05:49:03;;;;;;;89.15;26.98;;;;;;;-2.37;100.00;99236.63;5126066;27;20038;-79
2023/12/18 05:51:31;;;;;;;68.35;27.80;;;;;;;-2.25;100.00;99244.69;5116706;27;20180;-80
2023/12/18 05:53:57;;;;;;;75.88;31.10;;;;;;;-2.26;100.00;99237.69;5129841;27;20140;-79
2023/12/18 05:56:23;;;;;;;80.95;31.70;;;;;;;-2.27;100.00;99238.53;5133613;27;20470;-80
2023/12/18 05:58:52;;;;;;;67.43;29.08;;;;;;;-2.21;100.00;99251.72;5134112;27;20488;-80
2023/12/18 06:01:19;;;;;;;80.32;31.70;;;;;;;-2.18;100.00;99233.44;5128526;27;20418;-78
2023/12/18 06:03:45;;;;;;;78.60;33.35;;;;;;;-2.01;100.00;99252.94;5113701;27;20166;-79
2023/12/18 06:06:10;;;;;;;84.07;37.60;;;;;;;-1.92;100.00;99253.06;5133583;27;20521;-80
2023/12/18 06:08:39;;;;;;;62.75;27.35;;;;;;;-1.95;100.00;99232.03;5129898;27;20034;-80
2023/12/18 06:11:15;;;;;;;54.08;23.90;;;;;;;-1.90;100.00;99238.22;5131467;27;20073;-81
2023/12/18 06:13:41;;;;;;;51.35;22.98;;;;;;;-1.79;100.00;99231.41;5131803;27;20421;-79
2023/12/18 06:16:19;;;;;;;65.22;27.02;;;;;;;-1.73;100.00;99235.84;5129241;27;20018;-81
2023/12/18 06:18:45;;;;;;;59.58;24.13;;;;;;;-1.69;100.00;99243.75;5109662;27;20030;-80
2023/12/18 06:21:10;;;;;;;45.88;20.73;;;;;;;-1.81;100.00;99226.97;5109113;27;20569;-80
2023/12/18 06:23:39;;;;;;;63.63;26.65;;;;;;;-1.79;100.00;99228.78;5126743;27;20023;-79
2023/12/18 06:26:16;;;;;;;54.05;24.77;;;;;;;-1.82;100.00;99220.88;5129282;27;20162;-80
2023/12/18 06:28:42;;;;;;;75.55;30.70;;;;;;;-1.78;100.00;99235.78;5125490;27;20030;-80
2023/12/18 06:31:08;;;;;;;100.97;42.85;;;;;;;-1.80;100.00;99234.88;5113569;27;20398;-81
2023/12/18 06:33:33;;;;;;;71.18;32.47;;;;;;;-1.83;100.00;99228.72;5131756;28;20023;-80
2023/12/18 06:36:02;;;;;;;89.28;35.42;;;;;;;-1.87;100.00;99222.53;5131533;28;20023;-80
2023/12/18 06:38:28;;;;;;;78.22;32.22;;;;;;;-1.74;100.00;99234.97;5116312;27;20038;-80
2023/12/18 06:40:55;;;;;;;74.50;31.58;;;;;;;-1.76;100.00;99236.69;5129123;27;20018;-78
2023/12/18 06:43:27;;;;;;;86.72;36.13;;;;;;;-1.84;100.00;99232.19;5129127;27;20501;-80
2023/12/18 06:45:53;;;;;;;92.37;40.57;;;;;;;-1.74;100.00;99232.34;5125588;27;20031;-80
2023/12/18 06:48:23;;;;;;;91.43;38.58;;;;;;;-1.23;100.00;99239.13;5112592;27;20276;-80
2023/12/18 06:50:52;;;;;;;112.57;47.35;;;;;;;-0.02;100.00;99248.13;5134666;27;20038;-80
2023/12/18 06:53:21;;;;;;;134.00;52.97;;;;;;;1.26;100.00;99221.50;5134381;27;20035;-83
2023/12/18 06:58:39;;;;;;;102.20;42.83;;;;;;;3.38;100.00;99221.03;5108951;27;20066;-80
2023/12/18 07:01:05;;;;;;;101.95;44.15;;;;;;;3.62;100.00;99204.09;5114573;27;20027;-81
2023/12/18 07:03:33;;;;;;;112.28;47.17;;;;;;;4.19;100.00;99184.16;5130319;27;20045;-79
2023/12/18 07:06:01;;;;;;;99.80;44.60;;;;;;;4.86;100.00;99173.66;5130509;27;20038;-79
2023/12/18 07:08:29;;;;;;;94.68;41.08;;;;;;;5.79;100.00;99163.38;5116522;27;20397;-81
2023/12/18 07:10:57;;;;;;;88.95;37.47;;;;;;;6.66;100.00;99145.81;5134725;27;20054;-81
2023/12/18 07:13:22;;;;;;;89.10;41.92;;;;;;;6.52;100.00;99146.13;5113088;27;20026;-80
2023/12/18 07:15:57;;;;;;;76.97;36.38;;;;;;;6.17;100.00;99140.59;5116400;27;20433;-82
2023/12/18 07:18:28;;;;;;;79.80;38.38;;;;;;;7.11;100.00;99138.66;5129790;27;20516;-80
2023/12/18 07:20:54;;;;;;;86.57;39.33;;;;;;;7.56;100.00;99124.25;5128951;27;20026;-80
2023/12/18 07:23:19;;;;;;;81.50;38.22;;;;;;;7.60;100.00;99115.25;5133669;27;20023;-79
2023/12/18 07:25:45;;;;;;;72.03;35.03;;;;;;;7.03;100.00;99115.75;5136192;27;20064;-79
2023/12/18 07:28:11;;;;;;;63.35;30.23;;;;;;;7.04;100.00;99128.13;5131998;27;20046;-79
2023/12/18 07:30:37;;;;;;;57.75;27.83;;;;;;;7.28;100.00;99121.38;5136589;27;20066;-80
2023/12/18 07:33:03;;;;;;;73.35;35.15;;;;;;;6.96;100.00;99121.22;5119066;27;20037;-77
2023/12/18 07:35:28;;;;;;;68.18;31.27;;;;;;;6.92;100.00;99125.72;5128073;27;20034;-79
2023/12/18 07:37:54;;;;;;;54.03;26.63;;;;;;;6.50;100.00;99134.63;5128338;27;20019;-79
2023/12/18 07:40:21;;;;;;;49.72;23.70;;;;;;;6.72;100.00;99132.41;5113698;27;20084;-79
2023/12/18 07:42:47;;;;;;;48.55;23.00;;;;;;;6.86;100.00;99131.19;5154805;27;20026;-78
2023/12/18 07:45:12;;;;;;;41.42;22.17;;;;;;;7.40;100.00;99129.06;5135980;27;20022;-77
2023/12/18 07:47:39;;;;;;;48.15;22.80;;;;;;;7.58;100.00;99133.94;5130774;27;20038;-77
2023/12/18 07:50:08;;;;;;;43.60;22.48;;;;;;;8.17;100.00;99118.22;5115584;27;20375;-77
2023/12/18 07:52:35;;;;;;;48.58;21.75;;;;;;;8.52;95.68;99103.94;5136003;27;20429;-77
2023/12/18 07:55:00;;;;;;;41.45;21.50;;;;;;;8.46;95.33;99128.13;5136201;27;20379;-77
2023/12/18 07:57:26;;;;;;;47.67;22.48;;;;;;;9.00;89.74;99110.47;5135720;27;20056;-78
2023/12/18 07:59:52;;;;;;;46.67;23.75;;;;;;;9.27;88.98;99114.06;5154467;27;20023;-79
2023/12/18 08:02:17;;;;;;;48.78;24.45;;;;;;;8.42;89.85;99105.13;5135837;27;20023;-79
2023/12/18 08:04:43;;;;;;;52.22;25.55;;;;;;;7.88;99.11;99110.97;5118738;27;20455;-79
2023/12/18 08:07:08;;;;;;;43.95;24.45;;;;;;;8.65;96.04;99115.97;5154028;27;20045;-79
2023/12/18 08:09:34;;;;;;;58.53;27.88;;;;;;;9.23;89.65;99105.28;5154356;27;20026;-80
2023/12/18 08:12:00;;;;;;;56.78;28.55;;;;;;;9.24;89.44;99111.50;5114282;27;20470;-79
2023/12/18 08:14:26;;;;;;;79.88;39.10;;;;;;;9.14;87.22;99100.25;5135450;27;20022;-79
2023/12/18 08:16:52;;;;;;;51.30;27.45;;;;;;;8.90;90.87;99106.34;5135687;27;20022;-78
2023/12/18 08:19:17;;;;;;;53.28;26.80;;;;;;;9.94;83.79;99102.03;5118322;27;20031;-79
2023/12/18 08:21:44;;;;;;;51.60;26.45;;;;;;;10.37;78.28;99092.56;5135195;27;20023;-80
2023/12/18 08:24:09;;;;;;;47.17;25.15;;;;;;;10.77;75.71;99095.47;5115678;27;20023;-80
2023/12/18 08:26:35;;;;;;;45.53;23.98;;;;;;;11.01;72.47;99089.19;5117992;27;20398;-79
2023/12/18 08:29:01;;;;;;;52.63;25.73;;;;;;;11.47;70.28;99087.34;5118306;27;20046;-79
2023/12/18 08:31:26;;;;;;;51.65;27.17;;;;;;;11.83;69.04;99085.84;5135454;27;20023;-79
2023/12/18 08:33:52;;;;;;;51.67;29.02;;;;;;;11.71;66.42;99079.22;5153525;27;20584;-79
2023/12/18 08:36:18;;;;;;;204.27;108.43;;;;;;;12.10;65.56;99087.34;5134606;27;20045;-79
2023/12/18 08:38:44;;;;;;;53.30;28.33;;;;;;;11.93;64.55;99089.91;5132087;27;20035;-78
2023/12/18 08:41:09;;;;;;;60.78;31.90;;;;;;;11.68;64.81;99084.66;5135345;27;20022;-79
2023/12/18 08:43:35;;;;;;;56.10;30.33;;;;;;;11.93;63.34;99088.06;5135369;27;20030;-79
2023/12/18 08:46:01;;;;;;;58.30;31.80;;;;;;;12.22;63.34;99085.94;5153648;27;20045;-79
2023/12/18 08:48:27;;;;;;;68.55;34.17;;;;;;;11.66;63.75;99078.47;5134898;27;20030;-80
2023/12/18 08:50:52;;;;;;;61.75;34.55;;;;;;;10.48;73.50;99101.03;5134219;27;20474;-79
2023/12/18 08:53:18;;;;;;;65.20;33.30;;;;;;;10.42;74.99;99090.56;5134950;27;20038;-78
2023/12/18 08:55:43;;;;;;;73.55;35.25;;;;;;;10.72;72.32;99094.78;5115106;27;20101;-78
2023/12/18 08:58:09;;;;;;;66.25;34.60;;;;;;;11.39;70.28;99093.88;5132674;27;20109;-79
2023/12/18 09:00:35;;;;;;;64.68;34.95;;;;;;;12.11;64.39;99066.78;5131945;27;20026;-78
2023/12/18 09:03:02;;;;;;;62.97;33.95;;;;;;;13.07;60.16;99064.13;5153466;27;20026;-79
2023/12/18 09:05:28;;;;;;;65.55;35.30;;;;;;;13.26;57.25;99072.19;5123239;27;20035;-78
2023/12/18 09:07:54;;;;;;;63.25;35.13;;;;;;;12.71;59.76;99063.13;5134944;27;20106;-80
2023/12/18 09:10:22;;;;;;;62.63;33.63;;;;;;;12.30;62.46;99063.22;5134004;27;21635;-79
2023/12/18 09:12:53;;;;;;;67.03;34.20;;;;;;;12.04;63.22;99066.16;5118137;27;20053;-78
2023/12/18 09:15:19;;;;;;;56.50;31.08;;;;;;;11.67;69.03;99066.81;5134715;27;20034;-78
2023/12/18 09:17:44;;;;;;;57.63;31.05;;;;;;;12.52;62.66;99055.91;5111085;27;20043;-79
2023/12/18 09:20:10;;;;;;;51.35;28.27;;;;;;;13.35;59.42;99045.72;5105453;27;20116;-79
2023/12/18 09:22:36;;;;;;;52.72;28.40;;;;;;;13.56;58.21;99041.13;5132503;27;20019;-80
2023/12/18 09:25:03;;;;;;;52.88;28.88;;;;;;;14.19;57.07;99036.94;5124018;27;20027;-79
2023/12/18 09:27:28;;;;;;;53.20;28.95;;;;;;;13.91;55.28;99024.03;5109589;27;20486;-78
2023/12/18 09:29:54;;;;;;;51.15;27.58;;;;;;;14.44;55.42;99018.56;5134282;27;20019;-79
2023/12/18 09:32:20;;;;;;;51.75;29.42;;;;;;;14.92;53.18;99014.97;5116743;27;20029;-79
2023/12/18 09:34:46;;;;;;;48.80;27.83;;;;;;;15.07;51.50;98987.16;5134337;27;20054;-80
2023/12/18 09:37:12;;;;;;;47.13;28.85;;;;;;;15.38;51.97;98997.03;5133949;27;20034;-78
2023/12/18 09:39:40;;;;;;;46.17;26.73;;;;;;;15.53;50.90;98987.25;5117023;27;20029;-78
2023/12/18 09:42:06;;;;;;;50.92;27.02;;;;;;;15.40;50.46;98978.97;5113723;27;20039;-78
2023/12/18 09:44:32;;;;;;;49.88;27.25;;;;;;;14.93;51.93;98994.28;5127786;27;20491;-78
2023/12/18 09:46:59;;;;;;;40.22;24.33;;;;;;;15.08;52.67;98988.03;5133574;27;20072;-78
2023/12/18 09:49:24;;;;;;;37.80;20.42;;;;;;;14.96;52.10;98989.59;5128123;27;20510;-78
2023/12/18 09:51:53;;;;;;;35.72;20.85;;;;;;;16.00;49.40;98978.97;5152323;27;20031;-78
2023/12/18 09:54:18;;;;;;;34.28;19.90;;;;;;;16.35;48.13;98964.19;5133834;27;20105;-77
2023/12/18 09:56:44;;;;;;;25.52;15.90;;;;;;;16.75;47.51;98968.84;5133820;27;20130;-79
2023/12/18 09:59:10;;;;;;;24.90;14.95;;;;;;;16.72;48.00;98969.03;5108019;27;20031;-79
2023/12/18 10:01:38;;;;;;;23.48;15.98;;;;;;;15.64;49.39;98961.38;5113267;27;20410;-79
2023/12/18 10:04:04;;;;;;;26.65;16.30;;;;;;;14.92;51.43;98968.31;5128534;27;20023;-79
2023/12/18 10:06:29;;;;;;;26.27;15.65;;;;;;;15.01;51.52;98967.81;5133054;27;20095;-78
2023/12/18 10:08:55;;;;;;;25.40;14.82;;;;;;;15.13;51.40;98959.00;5151770;27;20091;-79
2023/12/18 10:11:25;;;;;;;26.65;14.00;;;;;;;15.44;49.23;98948.13;5132368;27;20102;-78
2023/12/18 10:13:55;;;;;;;20.67;12.45;;;;;;;15.92;47.94;98948.91;5112585;27;20091;-78
2023/12/18 10:16:21;;;;;;;43.35;26.23;;;;;;;16.43;47.35;98934.84;5133863;27;20019;-79
2023/12/18 10:18:47;;;;;;;21.58;12.43;;;;;;;16.93;45.98;98925.34;5113150;27;20034;-78
2023/12/18 10:21:12;;;;;;;16.73;10.95;;;;;;;16.95;45.91;98918.03;5130021;27;20035;-80
2023/12/18 10:23:39;;;;;;;28.55;16.92;;;;;;;17.66;45.12;98914.06;5131705;27;20520;-82
2023/12/18 10:26:04;;;;;;;27.13;16.20;;;;;;;18.61;43.85;98902.84;5107142;27;20455;-78
2023/12/18 10:28:30;;;;;;;28.27;16.10;;;;;;;19.30;41.92;98891.28;5133358;27;20087;-77
2023/12/18 10:30:59;;;;;;;22.33;11.60;;;;;;;19.33;41.58;98891.06;5133334;27;20062;-79
2023/12/18 10:33:25;;;;;;;27.38;16.15;;;;;;;19.87;40.61;98875.97;5131445;27;20106;-78
2023/12/18 10:35:53;;;;;;;14.43;9.50;;;;;;;20.28;39.00;98877.28;5130738;28;20455;-78
2023/12/18 10:38:20;;;;;;;14.05;9.65;;;;;;;20.48;38.44;98855.69;5132373;27;20397;-79
2023/12/18 10:40:46;;;;;;;18.38;11.38;;;;;;;20.64;37.88;98859.88;5133089;27;20045;-78
2023/12/18 10:43:23;;;;;;;12.85;8.80;;;;;;;20.65;38.15;98851.56;5131554;27;20023;-79
2023/12/18 10:45:52;;;;;;;21.80;12.80;;;;;;;20.39;38.90;98845.56;5114732;27;20031;-80
2023/12/18 10:48:18;;;;;;;26.75;15.82;;;;;;;19.77;39.34;98858.69;5133282;27;20546;-79
2023/12/18 10:50:45;;;;;;;51.58;25.95;;;;;;;19.48;40.25;98857.34;5115858;27;20022;-79
2023/12/18 10:53:16;;;;;;;24.65;14.10;;;;;;;19.54;40.03;98853.28;5115704;27;20025;-79
2023/12/18 10:55:42;;;;;;;37.25;24.38;;;;;;;19.79;40.37;98845.84;5151598;27;20014;-78
2023/12/18 10:58:08;;;;;;;25.33;15.63;;;;;;;19.76;39.54;98840.66;5152884;27;20401;-80
2023/12/18 11:00:35;;;;;;;22.73;14.95;;;;;;;20.22;38.63;98816.09;5120145;27;20033;-78
2023/12/18 11:03:01;;;;;;;24.65;14.80;;;;;;;20.12;39.06;98842.28;5133250;27;20067;-80
2023/12/18 11:05:31;;;;;;;31.92;21.33;;;;;;;20.33;38.86;98828.88;5137596;27;20072;-80
2023/12/18 11:07:57;;;;;;;28.25;17.15;;;;;;;20.61;38.35;98828.31;5137502;27;20026;-80
2023/12/18 11:10:24;;;;;;;27.48;16.90;;;;;;;21.20;37.52;98819.78;5137126;27;20050;-79
2023/12/18 11:12:53;;;;;;;31.45;18.60;;;;;;;21.66;37.02;98823.00;5119590;27;20067;-78
2023/12/18 11:15:47;;;;;;;33.70;21.90;;;;;;;21.33;37.73;98817.75;5131042;27;20019;-79
2023/12/18 11:18:33;;;;;;;39.50;26.40;;;;;;;21.45;37.46;98811.25;5135049;27;20031;-79